sensor_id;sensor_type;location;lat;lon;timestamp;pressure;altitude;pressure_sealevel;temperature;humidity
24230;BME280;12362;50.004;8.006;2023-04-10T00:01:39;101317.31;;;3.56;100.00
24230;BME280;12362;50.004;8.006;2023-04-10T00:04:07;101318.97;;;3.65;100.00
24230;BME280;12362;50.004;8.006;2023-04-10T00:06:33;101320.69;;;3.66;100.00
24230;BME280;12362;50.004;8.006;2023-04-10T00:08:59;101323.22;;;3.71;100.00
24230;BME280;12362;50.004;8.006;2023-04-10T00:11:28;101321.56;;;3.61;100.00
24230;BME280;12362;50.004;8.006;2023-04-10T00:13:53;101319.97;;;3.47;100.00
24230;BME280;12362;50.004;8.006;2023-04-10T00:16:19;101325.09;;;3.47;100.00
24230;BME280;12362;50.004;8.006;2023-04-10T00:18:45;101317.41;;;3.41;100.00
24230;BME280;12362;50.004;8.006;2023-04-10T00:21:11;101327.75;;;3.27;100.00
24230;BME280;12362;50.004;8.006;2023-04-10T00:23:37;101324.25;;;3.42;100.00
24230;BME280;12362;50.004;8.006;2023-04-10T00:26:05;101318.25;;;3.49;100.00
24230;BME280;12362;50.004;8.006;2023-04-10T00:28:31;101323.41;;;3.40;100.00
24230;BME280;12362;50.004;8.006;2023-04-10T00:30:56;101320.81;;;3.43;100.00
24230;BME280;12362;50.004;8.006;2023-04-10T00:33:22;101331.97;;;3.40;100.00
24230;BME280;12362;50.004;8.006;2023-04-10T00:35:47;101317.44;;;3.35;100.00
24230;BME280;12362;50.004;8.006;2023-04-10T00:38:13;101324.38;;;3.19;100.00
24230;BME280;12362;50.004;8.006;2023-04-10T00:40:38;101318.38;;;3.16;100.00
24230;BME280;12362;50.004;8.006;2023-04-10T00:43:04;101325.22;;;3.23;100.00
24230;BME280;12362;50.004;8.006;2023-04-10T00:45:30;101329.44;;;3.30;100.00
24230;BME280;12362;50.004;8.006;2023-04-10T00:47:56;101332.94;;;3.18;100.00
24230;BME280;12362;50.004;8.006;2023-04-10T00:50:25;101327.75;;;3.21;100.00
24230;BME280;12362;50.004;8.006;2023-04-10T00:52:51;101333.75;;;3.20;100.00
24230;BME280;12362;50.004;8.006;2023-04-10T00:55:17;101332.91;;;3.23;100.00
24230;BME280;12362;50.004;8.006;2023-04-10T00:57:44;101333.75;;;3.23;100.00
24230;BME280;12362;50.004;8.006;2023-04-10T01:00:12;101333.75;;;3.19;100.00
24230;BME280;12362;50.004;8.006;2023-04-10T01:02:38;101334.63;;;3.16;100.00
24230;BME280;12362;50.004;8.006;2023-04-10T01:05:04;101329.50;;;3.15;100.00
24230;BME280;12362;50.004;8.006;2023-04-10T01:11:01;101313.31;;;3.02;100.00
24230;BME280;12362;50.004;8.006;2023-04-10T01:13:34;101322.75;;;2.94;100.00
24230;BME280;12362;50.004;8.006;2023-04-10T01:16:04;101310.72;;;3.04;100.00
24230;BME280;12362;50.004;8.006;2023-04-10T01:18:39;101313.25;;;3.14;100.00
24230;BME280;12362;50.004;8.006;2023-04-10T01:21:10;101306.41;;;3.16;100.00
24230;BME280;12362;50.004;8.006;2023-04-10T01:23:50;101305.53;;;3.23;100.00
24230;BME280;12362;50.004;8.006;2023-04-10T01:26:31;101304.66;;;3.24;100.00
24230;BME280;12362;50.004;8.006;2023-04-10T01:29:12;101302.09;;;3.24;100.00
24230;BME280;12362;50.004;8.006;2023-04-10T01:32:12;101302.16;;;3.14;100.00
24230;BME280;12362;50.004;8.006;2023-04-10T01:34:53;101302.16;;;3.14;100.00
24230;BME280;12362;50.004;8.006;2023-04-10T01:37:23;101297.00;;;3.18;100.00
24230;BME280;12362;50.004;8.006;2023-04-10T01:39:56;101295.28;;;3.16;100.00
24230;BME280;12362;50.004;8.006;2023-04-10T01:42:25;101297.78;;;3.28;100.00
24230;BME280;12362;50.004;8.006;2023-04-10T01:44:52;101286.66;;;3.32;100.00
24230;BME280;12362;50.004;8.006;2023-04-10T01:47:19;101297.75;;;3.35;100.00
24230;BME280;12362;50.004;8.006;2023-04-10T01:49:46;101290.06;;;3.38;100.00
24230;BME280;12362;50.004;8.006;2023-04-10T01:52:14;101284.88;;;3.46;100.00
24230;BME280;12362;50.004;8.006;2023-04-10T01:54:47;101292.63;;;3.41;100.00
24230;BME280;12362;50.004;8.006;2023-04-10T01:57:18;101291.69;;;3.50;100.00
24230;BME280;12362;50.004;8.006;2023-04-10T01:59:53;101296.03;;;3.39;100.00
24230;BME280;12362;50.004;8.006;2023-04-10T02:02:18;101287.50;;;3.37;100.00
24230;BME280;12362;50.004;8.006;2023-04-10T02:04:44;101282.38;;;3.37;100.00
24230;BME280;12362;50.004;8.006;2023-04-10T02:08:30;101284.06;;;3.39;100.00
24230;BME280;12362;50.004;8.006;2023-04-10T02:10:47;101284.03;;;3.47;100.00
24230;BME280;12362;50.004;8.006;2023-04-10T02:13:18;101272.88;;;3.46;100.00
24230;BME280;12362;50.004;8.006;2023-04-10T02:15:49;101278.16;;;3.24;100.00
24230;BME280;12362;50.004;8.006;2023-04-10T02:18:17;101276.50;;;3.12;100.00
24230;BME280;12362;50.004;8.006;2023-04-10T02:20:44;101277.38;;;3.08;100.00
24230;BME280;12362;50.004;8.006;2023-04-10T02:23:11;101278.19;;;3.18;100.00
24230;BME280;12362;50.004;8.006;2023-04-10T02:25:44;101284.19;;;3.09;100.00
24230;BME280;12362;50.004;8.006;2023-04-10T02:28:14;101276.59;;;2.85;100.00
24230;BME280;12362;50.004;8.006;2023-04-10T02:30:40;101273.16;;;2.97;100.00
24230;BME280;12362;50.004;8.006;2023-04-10T02:33:05;101275.69;;;3.06;100.00
24230;BME280;12362;50.004;8.006;2023-04-10T02:35:32;101275.59;;;3.25;100.00
24230;BME280;12362;50.004;8.006;2023-04-10T02:37:58;101273.00;;;3.27;100.00
24230;BME280;12362;50.004;8.006;2023-04-10T02:40:23;101268.66;;;3.39;100.00
24230;BME280;12362;50.004;8.006;2023-04-10T02:42:55;101267.81;;;3.34;100.00
24230;BME280;12362;50.004;8.006;2023-04-10T02:45:21;101269.53;;;3.38;100.00
24230;BME280;12362;50.004;8.006;2023-04-10T02:47:47;101267.84;;;3.36;100.00
24230;BME280;12362;50.004;8.006;2023-04-10T02:50:13;101261.84;;;3.37;100.00
24230;BME280;12362;50.004;8.006;2023-04-10T02:52:45;101263.59;;;3.30;100.00
24230;BME280;12362;50.004;8.006;2023-04-10T02:55:11;101262.75;;;3.28;100.00
24230;BME280;12362;50.004;8.006;2023-04-10T02:57:38;101253.31;;;3.29;100.00
24230;BME280;12362;50.004;8.006;2023-04-10T03:00:04;101255.06;;;3.22;100.00
24230;BME280;12362;50.004;8.006;2023-04-10T03:02:47;101258.50;;;3.23;100.00
24230;BME280;12362;50.004;8.006;2023-04-10T03:05:16;101253.38;;;3.23;100.00
24230;BME280;12362;50.004;8.006;2023-04-10T03:07:41;101253.25;;;3.38;100.00
24230;BME280;12362;50.004;8.006;2023-04-10T03:10:08;101243.91;;;3.31;100.00
24230;BME280;12362;50.004;8.006;2023-04-10T03:12:35;101239.63;;;3.27;100.00
24230;BME280;12362;50.004;8.006;2023-04-10T03:15:01;101241.41;;;3.22;100.00
24230;BME280;12362;50.004;8.006;2023-04-10T03:17:26;101233.63;;;3.31;100.00
24230;BME280;12362;50.004;8.006;2023-04-10T03:19:52;101232.81;;;3.27;100.00
24230;BME280;12362;50.004;8.006;2023-04-10T03:22:18;101226.84;;;3.25;100.00
24230;BME280;12362;50.004;8.006;2023-04-10T03:24:44;101224.34;;;3.10;100.00
24230;BME280;12362;50.004;8.006;2023-04-10T03:27:10;101220.09;;;3.08;100.00
24230;BME280;12362;50.004;8.006;2023-04-10T03:29:36;101215.78;;;3.14;100.00
24230;BME280;12362;50.004;8.006;2023-04-10T03:32:03;101219.16;;;3.24;100.00
24230;BME280;12362;50.004;8.006;2023-04-10T03:34:29;101223.47;;;3.16;100.00
24230;BME280;12362;50.004;8.006;2023-04-10T03:36:54;101221.75;;;3.15;100.00
24230;BME280;12362;50.004;8.006;2023-04-10T03:39:20;101226.97;;;2.98;100.00
24230;BME280;12362;50.004;8.006;2023-04-10T03:41:46;101227.88;;;2.91;100.00
24230;BME280;12362;50.004;8.006;2023-04-10T03:44:12;101231.19;;;3.08;100.00
24230;BME280;12362;50.004;8.006;2023-04-10T03:46:38;101229.53;;;2.98;100.00
24230;BME280;12362;50.004;8.006;2023-04-10T03:49:03;101228.69;;;3.02;100.00
24230;BME280;12362;50.004;8.006;2023-04-10T03:51:31;101227.88;;;2.88;100.00
24230;BME280;12362;50.004;8.006;2023-04-10T03:53:56;101230.44;;;2.93;100.00
24230;BME280;12362;50.004;8.006;2023-04-10T03:56:23;101234.72;;;2.92;100.00
24230;BME280;12362;50.004;8.006;2023-04-10T03:58:48;101235.56;;;2.94;100.00
24230;BME280;12362;50.004;8.006;2023-04-10T04:01:14;101234.75;;;2.88;100.00
24230;BME280;12362;50.004;8.006;2023-04-10T04:04:10;101240.72;;;2.87;100.00
24230;BME280;12362;50.004;8.006;2023-04-10T04:06:55;101236.34;;;3.07;100.00
24230;BME280;12362;50.004;8.006;2023-04-10T04:09:44;101237.22;;;3.04;100.00
24230;BME280;12362;50.004;8.006;2023-04-10T04:12:26;101235.53;;;2.97;100.00
24230;BME280;12362;50.004;8.006;2023-04-10T04:15:00;101239.00;;;2.93;100.00
24230;BME280;12362;50.004;8.006;2023-04-10T04:17:38;101243.25;;;2.94;100.00
24230;BME280;12362;50.004;8.006;2023-04-10T04:20:06;101245.72;;;3.09;100.00
24230;BME280;12362;50.004;8.006;2023-04-10T04:22:41;101244.88;;;3.12;100.00
24230;BME280;12362;50.004;8.006;2023-04-10T04:25:25;101241.53;;;2.92;100.00
24230;BME280;12362;50.004;8.006;2023-04-10T04:28:03;101248.44;;;2.76;100.00
24230;BME280;12362;50.004;8.006;2023-04-10T04:30:37;101239.91;;;2.74;100.00
24230;BME280;12362;50.004;8.006;2023-04-10T04:33:22;101241.53;;;2.95;100.00
24230;BME280;12362;50.004;8.006;2023-04-10T04:36:00;101233.78;;;3.07;100.00
24230;BME280;12362;50.004;8.006;2023-04-10T04:38:40;101239.03;;;2.86;100.00
24230;BME280;12362;50.004;8.006;2023-04-10T04:41:32;101234.75;;;2.79;100.00
24230;BME280;12362;50.004;8.006;2023-04-10T04:44:08;101232.13;;;2.94;100.00
24230;BME280;12362;50.004;8.006;2023-04-10T04:47:06;101232.13;;;2.97;100.00
24230;BME280;12362;50.004;8.006;2023-04-10T04:49:52;101240.63;;;3.08;100.00
24230;BME280;12362;50.004;8.006;2023-04-10T04:52:21;101240.63;;;3.08;100.00
24230;BME280;12362;50.004;8.006;2023-04-10T04:55:17;101242.34;;;3.07;100.00
24230;BME280;12362;50.004;8.006;2023-04-10T04:57:55;101235.50;;;3.06;100.00
24230;BME280;12362;50.004;8.006;2023-04-10T05:00:41;101239.78;;;3.06;100.00
24230;BME280;12362;50.004;8.006;2023-04-10T05:03:37;101244.91;;;3.04;100.00
24230;BME280;12362;50.004;8.006;2023-04-10T05:06:21;101238.84;;;3.19;100.00
24230;BME280;12362;50.004;8.006;2023-04-10T05:09:12;101237.09;;;3.25;100.00
24230;BME280;12362;50.004;8.006;2023-04-10T05:12:07;101231.88;;;3.37;100.00
24230;BME280;12362;50.004;8.006;2023-04-10T05:15:08;101231.84;;;3.48;100.00
24230;BME280;12362;50.004;8.006;2023-04-10T05:17:48;101226.59;;;3.61;100.00
24230;BME280;12362;50.004;8.006;2023-04-10T05:20:38;101226.59;;;3.58;100.00
24230;BME280;12362;50.004;8.006;2023-04-10T05:23:24;101232.50;;;3.70;100.00
24230;BME280;12362;50.004;8.006;2023-04-10T05:25:59;101232.47;;;3.73;100.00
24230;BME280;12362;50.004;8.006;2023-04-10T05:28:57;101229.06;;;3.70;100.00
24230;BME280;12362;50.004;8.006;2023-04-10T05:31:35;101228.13;;;3.84;100.00
24230;BME280;12362;50.004;8.006;2023-04-10T05:34:22;101230.41;;;4.11;100.00
24230;BME280;12362;50.004;8.006;2023-04-10T05:37:10;101230.31;;;4.22;100.00
24230;BME280;12362;50.004;8.006;2023-04-10T05:39:49;101229.34;;;4.35;100.00
24230;BME280;12362;50.004;8.006;2023-04-10T05:42:34;101223.19;;;4.46;100.00
24230;BME280;12362;50.004;8.006;2023-04-10T05:45:34;101227.28;;;4.63;100.00
24230;BME280;12362;50.004;8.006;2023-04-10T05:48:13;101234.81;;;4.78;100.00
24230;BME280;12362;50.004;8.006;2023-04-10T05:51:01;101237.16;;;4.98;100.00
24230;BME280;12362;50.004;8.006;2023-04-10T05:53:54;101243.81;;;5.14;100.00
24230;BME280;12362;50.004;8.006;2023-04-10T05:56:31;101235.00;;;5.30;100.00
24230;BME280;12362;50.004;8.006;2023-04-10T05:59:07;101239.09;;;5.42;100.00
24230;BME280;12362;50.004;8.006;2023-04-10T06:01:51;101236.25;;;5.60;100.00
24230;BME280;12362;50.004;8.006;2023-04-10T06:04:20;101235.13;;;5.76;100.00
24230;BME280;12362;50.004;8.006;2023-04-10T06:06:50;101226.41;;;5.88;100.00
24230;BME280;12362;50.004;8.006;2023-04-10T06:09:16;101225.41;;;5.95;100.00
24230;BME280;12362;50.004;8.006;2023-04-10T06:11:44;101223.53;;;6.04;100.00
24230;BME280;12362;50.004;8.006;2023-04-10T06:14:10;101226.63;;;6.23;100.00
24230;BME280;12362;50.004;8.006;2023-04-10T06:16:40;101221.06;;;6.43;100.00
24230;BME280;12362;50.004;8.006;2023-04-10T06:19:08;101230.13;;;6.64;100.00
24230;BME280;12362;50.004;8.006;2023-04-10T06:21:34;101232.69;;;6.65;100.00
24230;BME280;12362;50.004;8.006;2023-04-10T06:24:00;101226.44;;;6.77;100.00
24230;BME280;12362;50.004;8.006;2023-04-10T06:26:30;101223.31;;;7.02;100.00
24230;BME280;12362;50.004;8.006;2023-04-10T06:28:56;101219.47;;;7.21;100.00
24230;BME280;12362;50.004;8.006;2023-04-10T06:31:23;101215.50;;;7.43;100.00
24230;BME280;12362;50.004;8.006;2023-04-10T06:33:50;101224.94;;;7.80;100.00
24230;BME280;12362;50.004;8.006;2023-04-10T06:36:16;101216.28;;;8.16;100.00
24230;BME280;12362;50.004;8.006;2023-04-10T06:38:49;101208.97;;;8.31;100.00
24230;BME280;12362;50.004;8.006;2023-04-10T06:41:18;101199.31;;;8.38;100.00
24230;BME280;12362;50.004;8.006;2023-04-10T06:43:43;101192.88;;;8.52;100.00
24230;BME280;12362;50.004;8.006;2023-04-10T06:46:10;101195.41;;;8.84;100.00
24230;BME280;12362;50.004;8.006;2023-04-10T06:48:36;101181.13;;;9.27;100.00
24230;BME280;12362;50.004;8.006;2023-04-10T06:51:02;101176.56;;;9.61;100.00
24230;BME280;12362;50.004;8.006;2023-04-10T06:53:29;101176.66;;;10.10;100.00
24230;BME280;12362;50.004;8.006;2023-04-10T06:55:55;101162.78;;;10.35;100.00
24230;BME280;12362;50.004;8.006;2023-04-10T06:58:24;101164.63;;;10.32;100.00
24230;BME280;12362;50.004;8.006;2023-04-10T07:00:50;101161.44;;;10.48;100.00
24230;BME280;12362;50.004;8.006;2023-04-10T07:03:16;101157.16;;;10.70;100.00
24230;BME280;12362;50.004;8.006;2023-04-10T07:05:41;101163.06;;;10.74;100.00
24230;BME280;12362;50.004;8.006;2023-04-10T07:08:07;101163.75;;;10.33;100.00
24230;BME280;12362;50.004;8.006;2023-04-10T07:10:36;101160.91;;;10.39;100.00
24230;BME280;12362;50.004;8.006;2023-04-10T07:13:01;101154.81;;;10.63;100.00
24230;BME280;12362;50.004;8.006;2023-04-10T07:15:27;101154.69;;;11.11;100.00
24230;BME280;12362;50.004;8.006;2023-04-10T07:18:09;101156.31;;;11.35;100.00
24230;BME280;12362;50.004;8.006;2023-04-10T07:20:40;101149.00;;;11.45;100.00
24230;BME280;12362;50.004;8.006;2023-04-10T07:23:06;101146.66;;;11.60;100.00
24230;BME280;12362;50.004;8.006;2023-04-10T07:25:32;101153.28;;;11.46;100.00
24230;BME280;12362;50.004;8.006;2023-04-10T07:27:59;101142.59;;;11.94;100.00
24230;BME280;12362;50.004;8.006;2023-04-10T07:30:31;101144.03;;;11.81;100.00
24230;BME280;12362;50.004;8.006;2023-04-10T07:32:57;101142.53;;;11.96;100.00
24230;BME280;12362;50.004;8.006;2023-04-10T07:35:26;101138.59;;;12.26;100.00
24230;BME280;12362;50.004;8.006;2023-04-10T07:37:51;101128.59;;;12.92;100.00
24230;BME280;12362;50.004;8.006;2023-04-10T07:40:18;101118.25;;;13.61;100.00
24230;BME280;12362;50.004;8.006;2023-04-10T07:42:44;101117.66;;;13.73;100.00
24230;BME280;12362;50.004;8.006;2023-04-10T07:45:11;101130.16;;;12.96;100.00
24230;BME280;12362;50.004;8.006;2023-04-10T07:47:38;101131.81;;;12.60;100.00
24230;BME280;12362;50.004;8.006;2023-04-10T07:50:05;101122.63;;;13.08;100.00
24230;BME280;12362;50.004;8.006;2023-04-10T07:52:32;101114.03;;;13.75;100.00
24230;BME280;12362;50.004;8.006;2023-04-10T07:55:01;101105.69;;;14.35;100.00
24230;BME280;12362;50.004;8.006;2023-04-10T07:57:27;101108.63;;;14.77;100.00
24230;BME280;12362;50.004;8.006;2023-04-10T07:59:53;101100.69;;;14.78;100.00
24230;BME280;12362;50.004;8.006;2023-04-10T08:02:18;101096.72;;;15.18;99.87
24230;BME280;12362;50.004;8.006;2023-04-10T08:04:50;101097.69;;;15.61;91.78
24230;BME280;12362;50.004;8.006;2023-04-10T08:07:19;101086.91;;;15.95;87.82
24230;BME280;12362;50.004;8.006;2023-04-10T08:09:44;101091.72;;;16.44;88.02
24230;BME280;12362;50.004;8.006;2023-04-10T08:12:10;101090.78;;;16.32;87.75
24230;BME280;12362;50.004;8.006;2023-04-10T08:14:35;101088.34;;;16.15;86.77
24230;BME280;12362;50.004;8.006;2023-04-10T08:17:01;101075.66;;;16.91;73.94
24230;BME280;12362;50.004;8.006;2023-04-10T08:19:26;101072.00;;;17.46;71.42
24230;BME280;12362;50.004;8.006;2023-04-10T08:21:52;101070.81;;;17.37;70.64
24230;BME280;12362;50.004;8.006;2023-04-10T08:24:18;101064.13;;;17.46;73.84
24230;BME280;12362;50.004;8.006;2023-04-10T08:26:45;101066.59;;;16.68;69.58
24230;BME280;12362;50.004;8.006;2023-04-10T08:29:11;101060.84;;;17.42;66.99
24230;BME280;12362;50.004;8.006;2023-04-10T08:31:37;101056.03;;;17.23;64.02
24230;BME280;12362;50.004;8.006;2023-04-10T08:34:02;101059.63;;;16.95;62.59
24230;BME280;12362;50.004;8.006;2023-04-10T08:36:28;101054.75;;;16.89;63.19
24230;BME280;12362;50.004;8.006;2023-04-10T08:38:58;101057.91;;;16.94;69.58
24230;BME280;12362;50.004;8.006;2023-04-10T08:41:24;101047.38;;;17.34;64.37
24230;BME280;12362;50.004;8.006;2023-04-10T08:43:50;101039.25;;;17.51;62.05
24230;BME280;12362;50.004;8.006;2023-04-10T08:46:16;101040.16;;;17.24;58.43
24230;BME280;12362;50.004;8.006;2023-04-10T08:48:49;101035.75;;;17.51;61.21
24230;BME280;12362;50.004;8.006;2023-04-10T08:51:21;101019.91;;;17.65;56.70
24230;BME280;12362;50.004;8.006;2023-04-10T08:53:54;101022.44;;;16.89;56.98
24230;BME280;12362;50.004;8.006;2023-04-10T08:56:22;101020.88;;;17.64;57.70
24230;BME280;12362;50.004;8.006;2023-04-10T08:58:50;101023.50;;;16.99;55.22
24230;BME280;12362;50.004;8.006;2023-04-10T09:01:18;101020.25;;;16.69;56.85
24230;BME280;12362;50.004;8.006;2023-04-10T09:03:47;101010.38;;;17.89;55.51
24230;BME280;12362;50.004;8.006;2023-04-10T09:06:12;101003.66;;;17.72;53.25
24230;BME280;12362;50.004;8.006;2023-04-10T09:08:38;101012.38;;;16.69;57.29
24230;BME280;12362;50.004;8.006;2023-04-10T09:11:04;101007.75;;;16.86;56.34
24230;BME280;12362;50.004;8.006;2023-04-10T09:16:03;101019.38;;;15.86;60.71
24230;BME280;12362;50.004;8.006;2023-04-10T09:21:08;101002.69;;;15.59;59.88
24230;BME280;12362;50.004;8.006;2023-04-10T09:23:33;100995.56;;;15.89;62.46
24230;BME280;12362;50.004;8.006;2023-04-10T09:25:59;100985.88;;;16.86;57.33
24230;BME280;12362;50.004;8.006;2023-04-10T09:28:24;100977.03;;;17.13;55.87
24230;BME280;12362;50.004;8.006;2023-04-10T09:30:50;100977.22;;;16.98;56.21
24230;BME280;12362;50.004;8.006;2023-04-10T09:33:26;100975.91;;;17.56;54.80
24230;BME280;12362;50.004;8.006;2023-04-10T09:35:52;100962.94;;;17.90;52.71
24230;BME280;12362;50.004;8.006;2023-04-10T09:38:20;100956.66;;;17.93;51.61
24230;BME280;12362;50.004;8.006;2023-04-10T09:40:46;100957.69;;;17.90;53.10
24230;BME280;12362;50.004;8.006;2023-04-10T09:43:25;100955.81;;;17.92;52.08
24230;BME280;12362;50.004;8.006;2023-04-10T09:45:55;100944.88;;;18.93;52.72
24230;BME280;12362;50.004;8.006;2023-04-10T09:48:22;100942.75;;;18.51;51.35
24230;BME280;12362;50.004;8.006;2023-04-10T09:50:48;100935.34;;;18.56;51.95
24230;BME280;12362;50.004;8.006;2023-04-10T09:53:19;100942.13;;;18.95;51.30
24230;BME280;12362;50.004;8.006;2023-04-10T09:55:47;100933.28;;;18.49;50.90
24230;BME280;12362;50.004;8.006;2023-04-10T09:58:13;100918.13;;;19.10;48.93
24230;BME280;12362;50.004;8.006;2023-04-10T10:00:41;100922.44;;;19.56;48.24
24230;BME280;12362;50.004;8.006;2023-04-10T10:03:08;100913.47;;;19.59;48.32
24230;BME280;12362;50.004;8.006;2023-04-10T10:05:43;100900.75;;;19.86;49.03
24230;BME280;12362;50.004;8.006;2023-04-10T10:08:10;100904.72;;;19.69;46.51
24230;BME280;12362;50.004;8.006;2023-04-10T10:10:44;100894.97;;;20.35;46.88
24230;BME280;12362;50.004;8.006;2023-04-10T10:13:15;100894.03;;;20.25;45.80
24230;BME280;12362;50.004;8.006;2023-04-10T10:16:03;100886.59;;;20.19;45.85
24230;BME280;12362;50.004;8.006;2023-04-10T10:21:08;100899.69;;;18.76;46.64
24230;BME280;12362;50.004;8.006;2023-04-10T10:23:36;100899.91;;;18.73;47.20
24230;BME280;12362;50.004;8.006;2023-04-10T10:26:05;100888.09;;;18.78;47.35
24230;BME280;12362;50.004;8.006;2023-04-10T10:28:32;100889.69;;;18.81;46.62
24230;BME280;12362;50.004;8.006;2023-04-10T10:30:58;100885.03;;;18.84;48.81
24230;BME280;12362;50.004;8.006;2023-04-10T10:33:25;100875.91;;;19.12;47.90
24230;BME280;12362;50.004;8.006;2023-04-10T10:35:50;100879.47;;;19.11;46.67
24230;BME280;12362;50.004;8.006;2023-04-10T10:38:17;100864.19;;;19.92;47.07
24230;BME280;12362;50.004;8.006;2023-04-10T10:44:17;100848.03;;;20.18;46.35
24230;BME280;12362;50.004;8.006;2023-04-10T10:47:28;100838.13;;;19.34;48.47
24230;BME280;12362;50.004;8.006;2023-04-10T10:52:41;100819.91;;;19.42;45.92
24230;BME280;12362;50.004;8.006;2023-04-10T10:58:05;100824.41;;;19.08;45.76
24230;BME280;12362;50.004;8.006;2023-04-10T11:05:54;100815.41;;;18.88;45.18
24230;BME280;12362;50.004;8.006;2023-04-10T11:08:49;100816.28;;;18.65;44.32
24230;BME280;12362;50.004;8.006;2023-04-10T11:11:20;100814.50;;;19.00;45.07
24230;BME280;12362;50.004;8.006;2023-04-10T11:16:17;100821.69;;;17.94;48.09
24230;BME280;12362;50.004;8.006;2023-04-10T11:21:10;100812.44;;;18.93;45.59
24230;BME280;12362;50.004;8.006;2023-04-10T11:29:33;100778.97;;;20.13;42.03
24230;BME280;12362;50.004;8.006;2023-04-10T11:32:04;100779.88;;;19.81;46.38
24230;BME280;12362;50.004;8.006;2023-04-10T11:34:30;100765.41;;;20.18;47.27
24230;BME280;12362;50.004;8.006;2023-04-10T11:36:59;100760.84;;;20.61;43.43
24230;BME280;12362;50.004;8.006;2023-04-10T11:39:29;100769.38;;;19.59;45.14
24230;BME280;12362;50.004;8.006;2023-04-10T11:44:58;100756.19;;;19.59;42.77
24230;BME280;12362;50.004;8.006;2023-04-10T11:47:24;100749.78;;;20.46;43.27
24230;BME280;12362;50.004;8.006;2023-04-10T11:49:52;100740.91;;;20.07;44.50
24230;BME280;12362;50.004;8.006;2023-04-10T11:52:24;100745.50;;;19.83;44.86
24230;BME280;12362;50.004;8.006;2023-04-10T11:54:50;100741.88;;;20.46;42.52
24230;BME280;12362;50.004;8.006;2023-04-10T11:57:19;100737.38;;;20.37;43.86
24230;BME280;12362;50.004;8.006;2023-04-10T12:00:21;100735.47;;;20.39;40.00
24230;BME280;12362;50.004;8.006;2023-04-10T12:02:54;100732.06;;;19.75;40.52
24230;BME280;12362;50.004;8.006;2023-04-10T12:05:20;100740.03;;;20.58;40.71
24230;BME280;12362;50.004;8.006;2023-04-10T12:07:54;100716.22;;;20.89;38.81
24230;BME280;12362;50.004;8.006;2023-04-10T12:10:20;100713.94;;;20.85;39.63
24230;BME280;12362;50.004;8.006;2023-04-10T12:12:50;100714.84;;;21.34;39.38
24230;BME280;12362;50.004;8.006;2023-04-10T12:15:27;100703.00;;;21.77;37.24
24230;BME280;12362;50.004;8.006;2023-04-10T12:17:53;100713.69;;;21.27;38.81
24230;BME280;12362;50.004;8.006;2023-04-10T12:20:20;100701.53;;;21.45;38.36
24230;BME280;12362;50.004;8.006;2023-04-10T12:22:56;100701.44;;;21.16;39.18
24230;BME280;12362;50.004;8.006;2023-04-10T12:25:27;100694.53;;;20.75;39.59
24230;BME280;12362;50.004;8.006;2023-04-10T12:27:53;100696.84;;;20.38;39.62
24230;BME280;12362;50.004;8.006;2023-04-10T12:30:19;100697.00;;;20.26;40.22
24230;BME280;12362;50.004;8.006;2023-04-10T12:32:50;100695.41;;;20.14;41.19
24230;BME280;12362;50.004;8.006;2023-04-10T12:35:39;100689.09;;;20.67;40.26
24230;BME280;12362;50.004;8.006;2023-04-10T12:38:42;100685.59;;;20.87;39.48
24230;BME280;12362;50.004;8.006;2023-04-10T12:41:10;100676.97;;;20.85;40.06
24230;BME280;12362;50.004;8.006;2023-04-10T12:43:38;100670.34;;;20.90;39.41
24230;BME280;12362;50.004;8.006;2023-04-10T12:46:05;100667.69;;;20.19;41.50
24230;BME280;12362;50.004;8.006;2023-04-10T12:48:32;100672.81;;;20.01;41.93
24230;BME280;12362;50.004;8.006;2023-04-10T12:51:04;100654.13;;;20.04;41.84
24230;BME280;12362;50.004;8.006;2023-04-10T12:53:30;100650.09;;;19.89;41.44
24230;BME280;12362;50.004;8.006;2023-04-10T12:55:56;100655.81;;;19.94;41.67
24230;BME280;12362;50.004;8.006;2023-04-10T12:58:24;100652.97;;;19.65;41.47
24230;BME280;12362;50.004;8.006;2023-04-10T13:00:54;100654.28;;;19.18;41.74
24230;BME280;12362;50.004;8.006;2023-04-10T13:03:25;100648.38;;;19.03;43.34
24230;BME280;12362;50.004;8.006;2023-04-10T13:05:54;100648.88;;;18.97;42.94
24230;BME280;12362;50.004;8.006;2023-04-10T13:08:23;100645.03;;;18.90;42.21
24230;BME280;12362;50.004;8.006;2023-04-10T13:10:49;100638.03;;;19.44;41.81
24230;BME280;12362;50.004;8.006;2023-04-10T13:13:15;100631.59;;;19.68;42.42
24230;BME280;12362;50.004;8.006;2023-04-10T13:15:41;100623.38;;;19.19;41.84
24230;BME280;12362;50.004;8.006;2023-04-10T13:18:13;100621.69;;;19.18;42.32
24230;BME280;12362;50.004;8.006;2023-04-10T13:20:39;100611.69;;;19.75;42.22
24230;BME280;12362;50.004;8.006;2023-04-10T13:23:09;100610.28;;;19.92;41.52
24230;BME280;12362;50.004;8.006;2023-04-10T13:25:38;100608.06;;;20.08;43.92
24230;BME280;12362;50.004;8.006;2023-04-10T13:28:07;100595.31;;;20.33;42.04
24230;BME280;12362;50.004;8.006;2023-04-10T13:30:37;100588.63;;;20.89;42.32
24230;BME280;12362;50.004;8.006;2023-04-10T13:33:03;100588.47;;;20.81;41.32
24230;BME280;12362;50.004;8.006;2023-04-10T13:35:29;100586.03;;;20.38;39.77
24230;BME280;12362;50.004;8.006;2023-04-10T13:37:55;100581.41;;;20.61;38.89
24230;BME280;12362;50.004;8.006;2023-04-10T13:40:21;100579.03;;;20.78;39.37
24230;BME280;12362;50.004;8.006;2023-04-10T13:42:48;100569.44;;;20.27;39.22
24230;BME280;12362;50.004;8.006;2023-04-10T13:45:14;100573.44;;;19.81;40.52
24230;BME280;12362;50.004;8.006;2023-04-10T13:47:42;100569.59;;;20.05;41.16
24230;BME280;12362;50.004;8.006;2023-04-10T13:50:08;100566.94;;;19.85;40.32